Terminal Aerodrome Forecast
Issued by NWS

Home | Current Version | Previous Version | Text Only | Print | Product List | Glossary On
Versions: 1 2 3 4 5 6 7 8 9 10 11 12 13
000
FTUS42 KMLB 300539
TAFSFB
TAF
KSFB 300539Z 3006/0106 16003KT P6SM SCT070 SCT200
     FM301400 14008KT P6SM SCT250
     FM302000 12013KT P6SM SCT060 SCT250
     FM010200 13005KT P6SM FEW070 BKN250=

USA.gov is the U.S. government's official web portal to all federal, state and local government web resources and services.